Cleveland, Ohio
Traffic Map
Current Weather Conditions
Cleveland, Ohio
Few Clouds
Few Clouds
22°
Feels Like: 22°
Wind Chill: 22° Ceiling: Unl
Heat Index: 22° Visibility: 10mi
Dew Point: 21° Wind: 9mph
Humidity: 91% Direction: 270° (W)
Pressure: 29.88in Gusts: 0mph
Raw Report DataKBKL 022053Z 27008KT 10SM FEW008 22/21 A2988 RMK AO2 PK WND 27026/1954 RAE16 SLP113 P0012 60016 T02220206 50001
Traffic Incident Summary
Active as of:
Severity:
Category:
InformationThere was an issue retrieving the traffic information for this location. Please try a different location or try again shortly.
Advertisements
Track Severe Weather on mobile